Apollo Beach, Florida
Current Conditions -  °F | °C
As of 8:58 PM on Tuesday 21 Oct 2014 (Local Time) from KMCF Reporting Station
Clear Clear  
Wind Chill: 23°   Ceiling: Unl
Heat Index: 23°   Visibility: 10mi
Dew Point: 19°   Wind: 3mph
Humidity: 80%   Direction: 10°N
Pressure: 29.94"   Gusts: NA
Location:  27.77°N, 82.39°W
Report Text: KMCF 220058Z AUTO 01003KT 10SM CLR 23/19 A2994 RMK AO2 SLP142 T02310194 $
Loading
Personal Weather Stations






























Interactive Weather Map
Tropical Storm Tracking
New forecast layout! Learn more

10-Day Weather Forecast

Advertisements
Track Severe Weather on mobile